Terminal Aerodrome Forecast
Issued by NWS

Home | Current Version | Previous Version | Text Only | Print | Product List | Glossary On
Versions: 1 2 3 4 5 6 7 8 9 10 11 12 13 14 15 16 17 18 19 20
437
FTUS43 KDVN 200643 AAB
TAFCID
TAF AMD
KCID 200643Z 2007/2106 08016G24KT 4SM -DZ BR OVC010
      TEMPO 2007/2009 6SM BKN035
     FM201200 08012KT 4SM SHRA BR OVC006
     FM201600 08014KT 4SM BR OVC004
     FM201900 13008KT 5SM BR OVC007=

USA.gov is the U.S. government's official web portal to all federal, state and local government web resources and services.